Ever Ulysses — 9V7962 — position and weather

sailwx.info

Track history (hours):
 
Tides and Currents Weather Stations Pressure Air Temp Water Temp Dewpoint Dewpoint Depression Visibility Wind Speed Wind Dir Waves Ship Positions

Ever Ulysses

Last reported at 2014-Jul-28 15:30 UTC. Time now 2014-Aug-20 14:45 UTC.
Position N 33°18' E 026°26'.
Warning: this ship's position is 22 days out of date.

Length 285 m; draft 11.3 m.

Type: Ship (hazmat cat D). MMSI: 564442000.

Date/timePositionNaut miles runAvg speedWind from/ knotsBaromVisibWave heightAir tempDewpointWater temp
2014-Jul-28 15:30N 33°18' E 026°26'1516.1
2014-Jul-28 14:33N 33°09' E 026°41'1616.5
2014-Jul-28 13:33N 32°60' E 026°57'5317.7
2014-Jul-28 10:32N 32°28' E 027°48'12910.7
2014-Jul-27 22:28N 31°08' E 029°48'0 0.0
2014-Jul-27 21:28N 31°08' E 029°48'0 0.0
2014-Jul-27 20:31N 31°08' E 029°48'0 0.0
2014-Jul-27 19:25N 31°08' E 029°48'0 0.0
2014-Jul-27 18:10N 31°08' E 029°48'0 0.0
2014-Jul-27 17:31N 31°08' E 029°48'  
2014-Jul-24 00:13N 31°57' E 034°11'6 8.3
2014-Jul-23 23:33N 31°59' E 034°05'1 0.5
2014-Jul-23 22:30N 31°59' E 034°05'5 5.3
2014-Jul-23 21:30N 32°02' E 034°00'1313.4
2014-Jul-23 20:33N 31°59' E 033°46'1313.3
2014-Jul-23 19:33N 31°55' E 033°31'1313.4
2014-Jul-23 18:33N 31°51' E 033°15'1413.7
2014-Jul-23 17:33N 31°48' E 032°60'1414.2
2014-Jul-23 16:33N 31°44' E 032°44'1615.9
2014-Jul-23 15:33N 31°37' E 032°27'1615.8
2014-Jul-23 14:33N 31°21' E 032°23'1111.1
2014-Jul-23 13:33N 31°11' E 032°20'10 9.5
2014-Jul-23 12:33N 31°01' E 032°19'10 9.8
2014-Jul-23 11:33N 30°51' E 032°19'57 7.7
2014-Jul-23 04:05N 29°55' E 032°33'6 1.2
2014-Jul-22 22:33N 29°49' E 032°34'1010.1
2014-Jul-22 21:32N 29°39' E 032°34'1313.0
2014-Jul-22 20:33N 29°27' E 032°39'  
Track history (hours):
 
Tides and Currents Weather Stations Pressure Air Temp Water Temp Dewpoint Dewpoint Depression Visibility Wind Speed Wind Dir Waves Ship Positions

Ever Ulysses

Last reported at 2014-Jul-28 15:30 UTC. Time now 2014-Aug-20 14:45 UTC.
Position N 33°18' E 026°26'.
Warning: this ship's position is 22 days out of date.

Length 285 m; draft 11.3 m.

Type: Ship (hazmat cat D). MMSI: 564442000.

Date/timePositionNaut miles runAvg speedWind from/ knotsBaromVisibWave heightAir tempDewpointWater temp
2014-Jul-28 15:30N 33°18' E 026°26'1516.1
2014-Jul-28 14:33N 33°09' E 026°41'1616.5
2014-Jul-28 13:33N 32°60' E 026°57'5317.7
2014-Jul-28 10:32N 32°28' E 027°48'12910.7
2014-Jul-27 22:28N 31°08' E 029°48'0 0.0
2014-Jul-27 21:28N 31°08' E 029°48'0 0.0
2014-Jul-27 20:31N 31°08' E 029°48'0 0.0
2014-Jul-27 19:25N 31°08' E 029°48'0 0.0
2014-Jul-27 18:10N 31°08' E 029°48'0 0.0
2014-Jul-27 17:31N 31°08' E 029°48'  
2014-Jul-24 00:13N 31°57' E 034°11'6 8.3
2014-Jul-23 23:33N 31°59' E 034°05'1 0.5
2014-Jul-23 22:30N 31°59' E 034°05'5 5.3
2014-Jul-23 21:30N 32°02' E 034°00'1313.4
2014-Jul-23 20:33N 31°59' E 033°46'1313.3
2014-Jul-23 19:33N 31°55' E 033°31'1313.4
2014-Jul-23 18:33N 31°51' E 033°15'1413.7
2014-Jul-23 17:33N 31°48' E 032°60'1414.2
2014-Jul-23 16:33N 31°44' E 032°44'1615.9
2014-Jul-23 15:33N 31°37' E 032°27'1615.8
2014-Jul-23 14:33N 31°21' E 032°23'1111.1
2014-Jul-23 13:33N 31°11' E 032°20'10 9.5
2014-Jul-23 12:33N 31°01' E 032°19'10 9.8
2014-Jul-23 11:33N 30°51' E 032°19'57 7.7
2014-Jul-23 04:05N 29°55' E 032°33'6 1.2
2014-Jul-22 22:33N 29°49' E 032°34'1010.1
2014-Jul-22 21:32N 29°39' E 032°34'1313.0
2014-Jul-22 20:33N 29°27' E 032°39'  

Dump ship's entire track history